sensor_id;sensor_type;location;lat;lon;timestamp;P1;durP1;ratioP1;P2;durP2;ratioP2
78589;SDS011;67888;50.228;7.828;2023-06-14T00:04:00;8.53;;;4.53;;
78589;SDS011;67888;50.228;7.828;2023-06-14T00:09:01;8.83;;;4.87;;
78589;SDS011;67888;50.228;7.828;2023-06-14T00:14:01;9.17;;;4.97;;
78589;SDS011;67888;50.228;7.828;2023-06-14T00:19:04;9.60;;;4.83;;
78589;SDS011;67888;50.228;7.828;2023-06-14T00:24:05;8.68;;;4.78;;
78589;SDS011;67888;50.228;7.828;2023-06-14T00:29:06;10.43;;;5.43;;
78589;SDS011;67888;50.228;7.828;2023-06-14T00:34:07;8.68;;;5.00;;
78589;SDS011;67888;50.228;7.828;2023-06-14T00:39:07;9.13;;;4.73;;
78589;SDS011;67888;50.228;7.828;2023-06-14T00:44:09;9.32;;;4.88;;
78589;SDS011;67888;50.228;7.828;2023-06-14T00:49:10;8.13;;;4.90;;
78589;SDS011;67888;50.228;7.828;2023-06-14T00:54:12;8.40;;;4.55;;
78589;SDS011;67888;50.228;7.828;2023-06-14T00:59:12;11.57;;;4.90;;
78589;SDS011;67888;50.228;7.828;2023-06-14T01:04:12;10.33;;;5.10;;
78589;SDS011;67888;50.228;7.828;2023-06-14T01:09:32;9.03;;;4.87;;
78589;SDS011;67888;50.228;7.828;2023-06-14T01:14:37;10.18;;;5.22;;
78589;SDS011;67888;50.228;7.828;2023-06-14T01:19:38;9.85;;;5.05;;
78589;SDS011;67888;50.228;7.828;2023-06-14T01:24:38;8.13;;;5.27;;
78589;SDS011;67888;50.228;7.828;2023-06-14T01:29:39;10.10;;;4.87;;
78589;SDS011;67888;50.228;7.828;2023-06-14T01:34:45;9.88;;;5.28;;
78589;SDS011;67888;50.228;7.828;2023-06-14T01:39:46;8.67;;;4.70;;
78589;SDS011;67888;50.228;7.828;2023-06-14T01:44:47;10.25;;;4.88;;
78589;SDS011;67888;50.228;7.828;2023-06-14T01:49:48;9.03;;;4.90;;
78589;SDS011;67888;50.228;7.828;2023-06-14T01:54:48;10.57;;;5.17;;
78589;SDS011;67888;50.228;7.828;2023-06-14T01:59:49;10.85;;;4.97;;
78589;SDS011;67888;50.228;7.828;2023-06-14T02:04:50;9.80;;;4.97;;
78589;SDS011;67888;50.228;7.828;2023-06-14T02:09:51;9.10;;;5.00;;
78589;SDS011;67888;50.228;7.828;2023-06-14T02:14:52;8.83;;;4.93;;
78589;SDS011;67888;50.228;7.828;2023-06-14T02:19:53;9.57;;;5.27;;
78589;SDS011;67888;50.228;7.828;2023-06-14T02:24:53;9.68;;;5.40;;
78589;SDS011;67888;50.228;7.828;2023-06-14T02:29:54;10.23;;;5.53;;
78589;SDS011;67888;50.228;7.828;2023-06-14T02:34:54;9.53;;;5.13;;
78589;SDS011;67888;50.228;7.828;2023-06-14T02:39:55;9.43;;;5.43;;
78589;SDS011;67888;50.228;7.828;2023-06-14T02:44:56;9.20;;;5.30;;
78589;SDS011;67888;50.228;7.828;2023-06-14T02:49:56;9.47;;;5.33;;
78589;SDS011;67888;50.228;7.828;2023-06-14T02:54:56;9.10;;;4.97;;
78589;SDS011;67888;50.228;7.828;2023-06-14T02:59:57;10.30;;;5.40;;
78589;SDS011;67888;50.228;7.828;2023-06-14T03:04:57;10.77;;;5.40;;
78589;SDS011;67888;50.228;7.828;2023-06-14T03:10:01;10.13;;;5.27;;
78589;SDS011;67888;50.228;7.828;2023-06-14T03:15:03;10.48;;;5.80;;
78589;SDS011;67888;50.228;7.828;2023-06-14T03:20:04;10.68;;;5.57;;
78589;SDS011;67888;50.228;7.828;2023-06-14T03:25:05;10.47;;;5.40;;
78589;SDS011;67888;50.228;7.828;2023-06-14T03:30:07;10.75;;;5.75;;
78589;SDS011;67888;50.228;7.828;2023-06-14T03:35:08;10.85;;;5.32;;
78589;SDS011;67888;50.228;7.828;2023-06-14T03:40:12;10.77;;;5.60;;
78589;SDS011;67888;50.228;7.828;2023-06-14T03:45:12;9.88;;;5.05;;
78589;SDS011;67888;50.228;7.828;2023-06-14T03:50:13;10.17;;;5.43;;
78589;SDS011;67888;50.228;7.828;2023-06-14T03:55:13;10.23;;;5.57;;
78589;SDS011;67888;50.228;7.828;2023-06-14T04:00:14;11.02;;;5.47;;
78589;SDS011;67888;50.228;7.828;2023-06-14T04:05:15;9.90;;;5.17;;
78589;SDS011;67888;50.228;7.828;2023-06-14T04:10:16;16.30;;;6.05;;
78589;SDS011;67888;50.228;7.828;2023-06-14T04:15:17;14.60;;;5.53;;
78589;SDS011;67888;50.228;7.828;2023-06-14T04:20:17;15.53;;;5.57;;
78589;SDS011;67888;50.228;7.828;2023-06-14T04:25:18;28.33;;;6.67;;
78589;SDS011;67888;50.228;7.828;2023-06-14T04:30:18;19.42;;;6.85;;
78589;SDS011;67888;50.228;7.828;2023-06-14T04:35:21;16.23;;;5.80;;
78589;SDS011;67888;50.228;7.828;2023-06-14T04:40:23;11.23;;;5.53;;
78589;SDS011;67888;50.228;7.828;2023-06-14T04:45:24;11.07;;;5.00;;
78589;SDS011;67888;50.228;7.828;2023-06-14T04:50:24;13.07;;;6.33;;
78589;SDS011;67888;50.228;7.828;2023-06-14T04:55:25;13.50;;;5.20;;
78589;SDS011;67888;50.228;7.828;2023-06-14T05:00:26;9.83;;;4.80;;
78589;SDS011;67888;50.228;7.828;2023-06-14T05:05:26;8.90;;;4.30;;
78589;SDS011;67888;50.228;7.828;2023-06-14T05:10:27;9.98;;;4.32;;
78589;SDS011;67888;50.228;7.828;2023-06-14T05:15:28;9.50;;;4.30;;
78589;SDS011;67888;50.228;7.828;2023-06-14T05:20:29;13.10;;;4.32;;
78589;SDS011;67888;50.228;7.828;2023-06-14T05:25:29;10.27;;;4.20;;
78589;SDS011;67888;50.228;7.828;2023-06-14T05:30:29;9.47;;;4.33;;
78589;SDS011;67888;50.228;7.828;2023-06-14T05:35:30;11.63;;;4.73;;
78589;SDS011;67888;50.228;7.828;2023-06-14T05:40:31;9.50;;;4.60;;
78589;SDS011;67888;50.228;7.828;2023-06-14T05:45:31;8.80;;;4.53;;
78589;SDS011;67888;50.228;7.828;2023-06-14T05:50:32;8.50;;;4.70;;
78589;SDS011;67888;50.228;7.828;2023-06-14T05:55:32;8.13;;;4.40;;
78589;SDS011;67888;50.228;7.828;2023-06-14T06:00:32;9.83;;;4.93;;
78589;SDS011;67888;50.228;7.828;2023-06-14T06:05:33;8.07;;;4.13;;
78589;SDS011;67888;50.228;7.828;2023-06-14T06:10:33;9.43;;;4.67;;
78589;SDS011;67888;50.228;7.828;2023-06-14T06:15:34;9.10;;;4.60;;
78589;SDS011;67888;50.228;7.828;2023-06-14T06:20:34;9.70;;;4.30;;
78589;SDS011;67888;50.228;7.828;2023-06-14T06:25:36;9.07;;;4.72;;
78589;SDS011;67888;50.228;7.828;2023-06-14T06:30:37;11.63;;;4.63;;
78589;SDS011;67888;50.228;7.828;2023-06-14T06:35:37;9.43;;;4.40;;
78589;SDS011;67888;50.228;7.828;2023-06-14T06:40:37;8.87;;;4.30;;
78589;SDS011;67888;50.228;7.828;2023-06-14T06:45:38;9.97;;;4.40;;
78589;SDS011;67888;50.228;7.828;2023-06-14T06:50:38;8.50;;;4.40;;
78589;SDS011;67888;50.228;7.828;2023-06-14T06:55:38;8.03;;;4.13;;
78589;SDS011;67888;50.228;7.828;2023-06-14T07:00:39;11.50;;;4.40;;
78589;SDS011;67888;50.228;7.828;2023-06-14T07:05:39;7.40;;;3.83;;
78589;SDS011;67888;50.228;7.828;2023-06-14T07:10:39;8.43;;;4.10;;
78589;SDS011;67888;50.228;7.828;2023-06-14T07:15:40;7.60;;;3.90;;
78589;SDS011;67888;50.228;7.828;2023-06-14T07:20:40;8.47;;;3.77;;
78589;SDS011;67888;50.228;7.828;2023-06-14T07:25:41;8.52;;;3.95;;
78589;SDS011;67888;50.228;7.828;2023-06-14T07:30:41;9.57;;;3.73;;
78589;SDS011;67888;50.228;7.828;2023-06-14T07:35:42;7.43;;;3.83;;
78589;SDS011;67888;50.228;7.828;2023-06-14T07:40:42;10.93;;;3.70;;
78589;SDS011;67888;50.228;7.828;2023-06-14T07:45:43;10.37;;;3.90;;
78589;SDS011;67888;50.228;7.828;2023-06-14T07:50:43;7.07;;;3.50;;
78589;SDS011;67888;50.228;7.828;2023-06-14T07:55:43;7.23;;;3.60;;
78589;SDS011;67888;50.228;7.828;2023-06-14T08:00:44;10.27;;;3.57;;
78589;SDS011;67888;50.228;7.828;2023-06-14T08:05:44;6.50;;;3.50;;
78589;SDS011;67888;50.228;7.828;2023-06-14T08:10:45;7.03;;;3.83;;
78589;SDS011;67888;50.228;7.828;2023-06-14T08:15:45;7.17;;;3.20;;
78589;SDS011;67888;50.228;7.828;2023-06-14T08:20:45;8.27;;;3.80;;
78589;SDS011;67888;50.228;7.828;2023-06-14T08:25:46;7.77;;;3.50;;
78589;SDS011;67888;50.228;7.828;2023-06-14T08:30:46;7.47;;;3.07;;
78589;SDS011;67888;50.228;7.828;2023-06-14T08:35:47;7.30;;;3.43;;
78589;SDS011;67888;50.228;7.828;2023-06-14T08:40:47;7.20;;;3.43;;
78589;SDS011;67888;50.228;7.828;2023-06-14T08:45:51;6.57;;;3.30;;
78589;SDS011;67888;50.228;7.828;2023-06-14T08:50:54;6.82;;;3.25;;
78589;SDS011;67888;50.228;7.828;2023-06-14T08:56:02;7.20;;;3.63;;
78589;SDS011;67888;50.228;7.828;2023-06-14T09:01:05;6.97;;;3.10;;
78589;SDS011;67888;50.228;7.828;2023-06-14T09:06:08;6.78;;;3.20;;
78589;SDS011;67888;50.228;7.828;2023-06-14T09:11:13;7.38;;;3.00;;
78589;SDS011;67888;50.228;7.828;2023-06-14T09:16:14;7.00;;;3.10;;
78589;SDS011;67888;50.228;7.828;2023-06-14T09:21:15;6.40;;;3.38;;
78589;SDS011;67888;50.228;7.828;2023-06-14T09:26:19;10.33;;;3.30;;
78589;SDS011;67888;50.228;7.828;2023-06-14T09:31:23;6.75;;;3.20;;
78589;SDS011;67888;50.228;7.828;2023-06-14T09:36:24;10.13;;;2.83;;
78589;SDS011;67888;50.228;7.828;2023-06-14T09:41:32;6.78;;;2.80;;
78589;SDS011;67888;50.228;7.828;2023-06-14T09:46:33;6.40;;;2.60;;
78589;SDS011;67888;50.228;7.828;2023-06-14T09:51:33;6.57;;;2.90;;
78589;SDS011;67888;50.228;7.828;2023-06-14T09:56:41;5.60;;;3.33;;
78589;SDS011;67888;50.228;7.828;2023-06-14T10:01:42;6.07;;;2.60;;
78589;SDS011;67888;50.228;7.828;2023-06-14T10:06:45;6.22;;;2.70;;
78589;SDS011;67888;50.228;7.828;2023-06-14T10:11:46;7.23;;;2.63;;
78589;SDS011;67888;50.228;7.828;2023-06-14T10:17:06;7.55;;;2.70;;
78589;SDS011;67888;50.228;7.828;2023-06-14T10:27:07;7.07;;;3.10;;
78589;SDS011;67888;50.228;7.828;2023-06-14T10:32:11;8.07;;;2.85;;
78589;SDS011;67888;50.228;7.828;2023-06-14T10:37:12;7.67;;;2.90;;
78589;SDS011;67888;50.228;7.828;2023-06-14T10:42:13;7.00;;;3.30;;
78589;SDS011;67888;50.228;7.828;2023-06-14T10:47:20;8.23;;;2.70;;
78589;SDS011;67888;50.228;7.828;2023-06-14T10:52:28;5.95;;;2.80;;
78589;SDS011;67888;50.228;7.828;2023-06-14T10:57:29;6.00;;;2.70;;
78589;SDS011;67888;50.228;7.828;2023-06-14T11:12:54;5.68;;;3.10;;
78589;SDS011;67888;50.228;7.828;2023-06-14T11:17:54;5.40;;;2.80;;
78589;SDS011;67888;50.228;7.828;2023-06-14T11:22:57;6.53;;;3.10;;
78589;SDS011;67888;50.228;7.828;2023-06-14T11:27:57;6.93;;;3.30;;
78589;SDS011;67888;50.228;7.828;2023-06-14T11:32:58;6.38;;;3.20;;
78589;SDS011;67888;50.228;7.828;2023-06-14T11:37:58;7.37;;;3.70;;
78589;SDS011;67888;50.228;7.828;2023-06-14T11:42:59;7.80;;;3.23;;
78589;SDS011;67888;50.228;7.828;2023-06-14T11:48:00;5.77;;;2.90;;
78589;SDS011;67888;50.228;7.828;2023-06-14T11:53:01;7.15;;;3.20;;
78589;SDS011;67888;50.228;7.828;2023-06-14T11:58:07;8.20;;;3.37;;
78589;SDS011;67888;50.228;7.828;2023-06-14T12:03:08;6.55;;;3.65;;
78589;SDS011;67888;50.228;7.828;2023-06-14T12:08:09;6.40;;;3.50;;
78589;SDS011;67888;50.228;7.828;2023-06-14T12:13:09;6.20;;;3.30;;
78589;SDS011;67888;50.228;7.828;2023-06-14T12:18:10;6.68;;;3.30;;
78589;SDS011;67888;50.228;7.828;2023-06-14T12:23:11;7.20;;;3.40;;
78589;SDS011;67888;50.228;7.828;2023-06-14T12:28:11;7.75;;;3.70;;
78589;SDS011;67888;50.228;7.828;2023-06-14T12:33:12;6.20;;;3.50;;
78589;SDS011;67888;50.228;7.828;2023-06-14T12:38:12;6.27;;;3.63;;
78589;SDS011;67888;50.228;7.828;2023-06-14T12:43:13;6.07;;;3.37;;
78589;SDS011;67888;50.228;7.828;2023-06-14T12:48:13;8.10;;;3.27;;
78589;SDS011;67888;50.228;7.828;2023-06-14T12:53:14;7.10;;;3.60;;
78589;SDS011;67888;50.228;7.828;2023-06-14T12:58:15;7.57;;;3.60;;
78589;SDS011;67888;50.228;7.828;2023-06-14T13:03:17;7.15;;;3.67;;
78589;SDS011;67888;50.228;7.828;2023-06-14T13:08:17;9.93;;;3.53;;
78589;SDS011;67888;50.228;7.828;2023-06-14T13:13:18;6.80;;;3.33;;
78589;SDS011;67888;50.228;7.828;2023-06-14T13:18:18;14.20;;;3.50;;
78589;SDS011;67888;50.228;7.828;2023-06-14T13:23:18;8.50;;;3.40;;
78589;SDS011;67888;50.228;7.828;2023-06-14T13:28:19;7.57;;;3.57;;
78589;SDS011;67888;50.228;7.828;2023-06-14T13:33:21;5.70;;;3.10;;
78589;SDS011;67888;50.228;7.828;2023-06-14T13:38:21;7.13;;;3.23;;
78589;SDS011;67888;50.228;7.828;2023-06-14T13:43:21;5.90;;;3.27;;
78589;SDS011;67888;50.228;7.828;2023-06-14T13:48:23;8.02;;;3.22;;
78589;SDS011;67888;50.228;7.828;2023-06-14T13:53:23;8.97;;;3.50;;
78589;SDS011;67888;50.228;7.828;2023-06-14T13:58:24;8.13;;;3.53;;
78589;SDS011;67888;50.228;7.828;2023-06-14T14:03:24;7.75;;;3.10;;
78589;SDS011;67888;50.228;7.828;2023-06-14T14:08:24;6.70;;;3.40;;
78589;SDS011;67888;50.228;7.828;2023-06-14T14:13:25;5.77;;;2.60;;
78589;SDS011;67888;50.228;7.828;2023-06-14T14:18:25;7.97;;;2.87;;
78589;SDS011;67888;50.228;7.828;2023-06-14T14:23:25;7.47;;;3.43;;
78589;SDS011;67888;50.228;7.828;2023-06-14T14:28:26;6.97;;;3.80;;
78589;SDS011;67888;50.228;7.828;2023-06-14T14:33:26;5.97;;;3.33;;
78589;SDS011;67888;50.228;7.828;2023-06-14T14:38:27;9.30;;;3.50;;
78589;SDS011;67888;50.228;7.828;2023-06-14T14:43:27;6.70;;;3.40;;
78589;SDS011;67888;50.228;7.828;2023-06-14T14:48:31;8.88;;;3.90;;
78589;SDS011;67888;50.228;7.828;2023-06-14T14:53:31;7.00;;;3.73;;
78589;SDS011;67888;50.228;7.828;2023-06-14T14:58:31;7.10;;;3.27;;
78589;SDS011;67888;50.228;7.828;2023-06-14T15:03:32;7.77;;;4.10;;
78589;SDS011;67888;50.228;7.828;2023-06-14T15:08:32;7.87;;;3.63;;
78589;SDS011;67888;50.228;7.828;2023-06-14T15:13:33;6.27;;;3.70;;
78589;SDS011;67888;50.228;7.828;2023-06-14T15:18:33;7.43;;;4.00;;
78589;SDS011;67888;50.228;7.828;2023-06-14T15:23:33;6.97;;;3.40;;
78589;SDS011;67888;50.228;7.828;2023-06-14T15:28:34;5.90;;;3.63;;
78589;SDS011;67888;50.228;7.828;2023-06-14T15:33:34;9.33;;;3.90;;
78589;SDS011;67888;50.228;7.828;2023-06-14T15:38:35;8.23;;;3.57;;
78589;SDS011;67888;50.228;7.828;2023-06-14T15:43:35;10.55;;;3.92;;
78589;SDS011;67888;50.228;7.828;2023-06-14T15:48:35;9.17;;;4.03;;
78589;SDS011;67888;50.228;7.828;2023-06-14T15:53:36;5.73;;;3.20;;
78589;SDS011;67888;50.228;7.828;2023-06-14T15:58:36;6.60;;;3.53;;
78589;SDS011;67888;50.228;7.828;2023-06-14T16:03:37;7.20;;;3.77;;
78589;SDS011;67888;50.228;7.828;2023-06-14T16:08:37;6.47;;;3.63;;
78589;SDS011;67888;50.228;7.828;2023-06-14T16:13:39;9.87;;;3.83;;
78589;SDS011;67888;50.228;7.828;2023-06-14T16:18:40;7.32;;;3.45;;
78589;SDS011;67888;50.228;7.828;2023-06-14T16:23:41;6.43;;;3.70;;
78589;SDS011;67888;50.228;7.828;2023-06-14T16:28:41;6.00;;;3.47;;
78589;SDS011;67888;50.228;7.828;2023-06-14T16:33:42;7.97;;;3.80;;
78589;SDS011;67888;50.228;7.828;2023-06-14T16:38:43;8.90;;;3.47;;
78589;SDS011;67888;50.228;7.828;2023-06-14T16:43:43;7.53;;;3.50;;
78589;SDS011;67888;50.228;7.828;2023-06-14T16:48:43;41.45;;;11.90;;
78589;SDS011;67888;50.228;7.828;2023-06-14T16:53:44;7.70;;;3.50;;
78589;SDS011;67888;50.228;7.828;2023-06-14T16:58:44;9.73;;;3.60;;
78589;SDS011;67888;50.228;7.828;2023-06-14T17:03:45;10.43;;;3.70;;
78589;SDS011;67888;50.228;7.828;2023-06-14T17:08:45;6.53;;;3.93;;
78589;SDS011;67888;50.228;7.828;2023-06-14T17:13:46;10.13;;;7.30;;
78589;SDS011;67888;50.228;7.828;2023-06-14T17:18:46;19.20;;;17.10;;
78589;SDS011;67888;50.228;7.828;2023-06-14T17:23:46;20.30;;;18.90;;
78589;SDS011;67888;50.228;7.828;2023-06-14T17:28:47;20.83;;;19.40;;
78589;SDS011;67888;50.228;7.828;2023-06-14T17:33:47;19.70;;;18.23;;
78589;SDS011;67888;50.228;7.828;2023-06-14T17:38:47;16.47;;;15.27;;
78589;SDS011;67888;50.228;7.828;2023-06-14T17:43:48;14.50;;;13.30;;
78589;SDS011;67888;50.228;7.828;2023-06-14T17:48:48;13.10;;;12.00;;
78589;SDS011;67888;50.228;7.828;2023-06-14T17:53:48;13.10;;;12.10;;
78589;SDS011;67888;50.228;7.828;2023-06-14T17:58:49;15.23;;;13.93;;
78589;SDS011;67888;50.228;7.828;2023-06-14T18:03:50;7.97;;;5.73;;
78589;SDS011;67888;50.228;7.828;2023-06-14T18:08:51;10.82;;;9.80;;
78589;SDS011;67888;50.228;7.828;2023-06-14T18:13:51;14.63;;;13.33;;
78589;SDS011;67888;50.228;7.828;2023-06-14T18:18:53;9.07;;;4.20;;
78589;SDS011;67888;50.228;7.828;2023-06-14T18:23:53;20.95;;;15.68;;
78589;SDS011;67888;50.228;7.828;2023-06-14T18:28:54;10.00;;;6.57;;
78589;SDS011;67888;50.228;7.828;2023-06-14T18:33:55;10.23;;;4.30;;
78589;SDS011;67888;50.228;7.828;2023-06-14T18:38:55;9.05;;;4.18;;
78589;SDS011;67888;50.228;7.828;2023-06-14T18:43:56;5.63;;;3.40;;
78589;SDS011;67888;50.228;7.828;2023-06-14T18:48:56;8.20;;;3.70;;
78589;SDS011;67888;50.228;7.828;2023-06-14T18:53:56;10.53;;;3.77;;
78589;SDS011;67888;50.228;7.828;2023-06-14T18:58:57;8.30;;;3.97;;
78589;SDS011;67888;50.228;7.828;2023-06-14T19:03:57;8.03;;;3.83;;
78589;SDS011;67888;50.228;7.828;2023-06-14T19:08:58;6.80;;;3.43;;
78589;SDS011;67888;50.228;7.828;2023-06-14T19:13:58;7.77;;;3.40;;
78589;SDS011;67888;50.228;7.828;2023-06-14T19:18:58;7.17;;;3.50;;
78589;SDS011;67888;50.228;7.828;2023-06-14T19:23:59;6.33;;;3.47;;
78589;SDS011;67888;50.228;7.828;2023-06-14T19:29:00;7.47;;;3.47;;
78589;SDS011;67888;50.228;7.828;2023-06-14T19:34:00;8.83;;;3.23;;
78589;SDS011;67888;50.228;7.828;2023-06-14T19:39:00;8.70;;;3.83;;
78589;SDS011;67888;50.228;7.828;2023-06-14T19:44:01;8.13;;;3.93;;
78589;SDS011;67888;50.228;7.828;2023-06-14T19:49:01;6.67;;;3.20;;
78589;SDS011;67888;50.228;7.828;2023-06-14T19:54:02;7.77;;;3.60;;
78589;SDS011;67888;50.228;7.828;2023-06-14T19:59:02;9.07;;;3.55;;
78589;SDS011;67888;50.228;7.828;2023-06-14T20:04:03;7.73;;;3.43;;
78589;SDS011;67888;50.228;7.828;2023-06-14T20:09:04;7.67;;;3.67;;
78589;SDS011;67888;50.228;7.828;2023-06-14T20:14:11;7.20;;;3.38;;
78589;SDS011;67888;50.228;7.828;2023-06-14T20:19:12;8.17;;;3.47;;
78589;SDS011;67888;50.228;7.828;2023-06-14T20:24:12;7.57;;;3.40;;
78589;SDS011;67888;50.228;7.828;2023-06-14T20:29:13;6.53;;;3.30;;
78589;SDS011;67888;50.228;7.828;2023-06-14T20:34:13;6.43;;;3.27;;
78589;SDS011;67888;50.228;7.828;2023-06-14T20:39:14;6.80;;;3.50;;
78589;SDS011;67888;50.228;7.828;2023-06-14T20:44:14;8.10;;;3.60;;
78589;SDS011;67888;50.228;7.828;2023-06-14T20:49:16;8.03;;;3.33;;
78589;SDS011;67888;50.228;7.828;2023-06-14T20:54:17;6.30;;;3.47;;
78589;SDS011;67888;50.228;7.828;2023-06-14T20:59:17;6.90;;;3.30;;
78589;SDS011;67888;50.228;7.828;2023-06-14T21:04:18;6.67;;;3.00;;
78589;SDS011;67888;50.228;7.828;2023-06-14T21:09:18;7.90;;;3.33;;
78589;SDS011;67888;50.228;7.828;2023-06-14T21:14:19;7.27;;;3.00;;
78589;SDS011;67888;50.228;7.828;2023-06-14T21:19:19;6.57;;;3.20;;
78589;SDS011;67888;50.228;7.828;2023-06-14T21:24:20;7.78;;;3.30;;
78589;SDS011;67888;50.228;7.828;2023-06-14T21:29:20;6.90;;;3.23;;
78589;SDS011;67888;50.228;7.828;2023-06-14T21:34:20;6.73;;;3.50;;
78589;SDS011;67888;50.228;7.828;2023-06-14T21:39:21;8.43;;;3.97;;
78589;SDS011;67888;50.228;7.828;2023-06-14T21:44:21;9.37;;;4.03;;
78589;SDS011;67888;50.228;7.828;2023-06-14T21:49:22;8.13;;;4.10;;
78589;SDS011;67888;50.228;7.828;2023-06-14T21:54:22;7.10;;;3.70;;
78589;SDS011;67888;50.228;7.828;2023-06-14T21:59:22;7.30;;;3.87;;
78589;SDS011;67888;50.228;7.828;2023-06-14T22:04:23;8.87;;;3.77;;
78589;SDS011;67888;50.228;7.828;2023-06-14T22:09:23;8.90;;;4.00;;
78589;SDS011;67888;50.228;7.828;2023-06-14T22:14:26;8.87;;;3.80;;
78589;SDS011;67888;50.228;7.828;2023-06-14T22:19:30;6.55;;;3.85;;
78589;SDS011;67888;50.228;7.828;2023-06-14T22:24:30;8.30;;;4.00;;
78589;SDS011;67888;50.228;7.828;2023-06-14T22:29:32;9.80;;;3.75;;
78589;SDS011;67888;50.228;7.828;2023-06-14T22:34:35;8.73;;;4.47;;
78589;SDS011;67888;50.228;7.828;2023-06-14T22:39:39;8.40;;;4.27;;
78589;SDS011;67888;50.228;7.828;2023-06-14T22:44:39;7.73;;;4.07;;
78589;SDS011;67888;50.228;7.828;2023-06-14T22:49:40;7.43;;;3.95;;
78589;SDS011;67888;50.228;7.828;2023-06-14T22:54:40;8.00;;;4.00;;
78589;SDS011;67888;50.228;7.828;2023-06-14T22:59:44;7.10;;;3.90;;
78589;SDS011;67888;50.228;7.828;2023-06-14T23:04:45;7.00;;;3.83;;
78589;SDS011;67888;50.228;7.828;2023-06-14T23:09:47;7.50;;;4.25;;
78589;SDS011;67888;50.228;7.828;2023-06-14T23:14:47;7.10;;;4.00;;
78589;SDS011;67888;50.228;7.828;2023-06-14T23:19:48;6.88;;;3.80;;
78589;SDS011;67888;50.228;7.828;2023-06-14T23:24:49;8.20;;;4.00;;
78589;SDS011;67888;50.228;7.828;2023-06-14T23:29:51;7.72;;;4.22;;
78589;SDS011;67888;50.228;7.828;2023-06-14T23:34:53;6.90;;;3.75;;
78589;SDS011;67888;50.228;7.828;2023-06-14T23:39:55;7.17;;;3.87;;
78589;SDS011;67888;50.228;7.828;2023-06-14T23:44:56;7.32;;;3.70;;
78589;SDS011;67888;50.228;7.828;2023-06-14T23:50:00;7.47;;;3.70;;
78589;SDS011;67888;50.228;7.828;2023-06-14T23:55:01;7.77;;;3.80;;
